sensor_id;sensor_type;location;lat;lon;timestamp;temperature;humidity
33023;DHT22;19390;51.460;5.710;2023-04-03T00:00:56;0.30;99.90
33023;DHT22;19390;51.460;5.710;2023-04-03T00:03:22;0.30;99.90
33023;DHT22;19390;51.460;5.710;2023-04-03T00:05:48;0.30;99.90
33023;DHT22;19390;51.460;5.710;2023-04-03T00:08:14;0.30;99.90
33023;DHT22;19390;51.460;5.710;2023-04-03T00:10:40;0.20;99.90
33023;DHT22;19390;51.460;5.710;2023-04-03T00:13:06;0.20;99.90
33023;DHT22;19390;51.460;5.710;2023-04-03T00:15:33;0.20;99.90
33023;DHT22;19390;51.460;5.710;2023-04-03T00:17:59;0.30;99.90
33023;DHT22;19390;51.460;5.710;2023-04-03T00:20:24;0.50;99.90
33023;DHT22;19390;51.460;5.710;2023-04-03T00:22:51;0.60;99.90
33023;DHT22;19390;51.460;5.710;2023-04-03T00:25:17;0.70;99.90
33023;DHT22;19390;51.460;5.710;2023-04-03T00:27:42;0.80;99.90
33023;DHT22;19390;51.460;5.710;2023-04-03T00:30:11;0.80;99.90
33023;DHT22;19390;51.460;5.710;2023-04-03T00:32:38;0.70;99.90
33023;DHT22;19390;51.460;5.710;2023-04-03T00:35:04;0.70;99.90
33023;DHT22;19390;51.460;5.710;2023-04-03T00:37:30;0.80;99.90
33023;DHT22;19390;51.460;5.710;2023-04-03T00:39:56;0.80;99.90
33023;DHT22;19390;51.460;5.710;2023-04-03T00:42:22;0.80;99.90
33023;DHT22;19390;51.460;5.710;2023-04-03T00:47:16;0.70;99.90
33023;DHT22;19390;51.460;5.710;2023-04-03T00:49:43;0.60;99.90
33023;DHT22;19390;51.460;5.710;2023-04-03T00:52:15;0.70;99.90
33023;DHT22;19390;51.460;5.710;2023-04-03T00:54:42;0.60;99.90
33023;DHT22;19390;51.460;5.710;2023-04-03T00:57:10;0.80;99.90
33023;DHT22;19390;51.460;5.710;2023-04-03T00:59:42;0.70;99.90
33023;DHT22;19390;51.460;5.710;2023-04-03T01:02:09;0.80;99.90
33023;DHT22;19390;51.460;5.710;2023-04-03T01:04:40;0.70;99.90
33023;DHT22;19390;51.460;5.710;2023-04-03T01:07:07;0.60;99.90
33023;DHT22;19390;51.460;5.710;2023-04-03T01:09:34;0.80;99.90
33023;DHT22;19390;51.460;5.710;2023-04-03T01:12:19;1.00;99.90
33023;DHT22;19390;51.460;5.710;2023-04-03T01:14:46;1.20;99.90
33023;DHT22;19390;51.460;5.710;2023-04-03T01:28:08;1.00;99.90
33023;DHT22;19390;51.460;5.710;2023-04-03T01:31:02;0.90;99.90
33023;DHT22;19390;51.460;5.710;2023-04-03T01:33:25;0.90;99.90
33023;DHT22;19390;51.460;5.710;2023-04-03T01:35:50;0.90;99.90
33023;DHT22;19390;51.460;5.710;2023-04-03T01:38:16;0.80;99.90
33023;DHT22;19390;51.460;5.710;2023-04-03T01:40:42;1.10;99.90
33023;DHT22;19390;51.460;5.710;2023-04-03T01:43:08;1.10;99.90
33023;DHT22;19390;51.460;5.710;2023-04-03T01:45:33;1.20;99.90
33023;DHT22;19390;51.460;5.710;2023-04-03T01:47:59;1.20;99.90
33023;DHT22;19390;51.460;5.710;2023-04-03T01:50:25;1.20;99.90
33023;DHT22;19390;51.460;5.710;2023-04-03T01:52:50;1.20;99.90
33023;DHT22;19390;51.460;5.710;2023-04-03T01:55:16;1.20;99.90
33023;DHT22;19390;51.460;5.710;2023-04-03T01:57:42;1.30;99.90
33023;DHT22;19390;51.460;5.710;2023-04-03T02:00:08;1.10;99.90
33023;DHT22;19390;51.460;5.710;2023-04-03T02:02:33;1.10;99.90
33023;DHT22;19390;51.460;5.710;2023-04-03T02:04:59;1.10;99.90
33023;DHT22;19390;51.460;5.710;2023-04-03T02:07:25;1.30;99.90
33023;DHT22;19390;51.460;5.710;2023-04-03T02:09:51;1.30;99.90
33023;DHT22;19390;51.460;5.710;2023-04-03T02:12:17;1.30;99.90
33023;DHT22;19390;51.460;5.710;2023-04-03T02:14:42;1.30;99.90
33023;DHT22;19390;51.460;5.710;2023-04-03T02:17:08;1.40;99.90
33023;DHT22;19390;51.460;5.710;2023-04-03T02:19:35;1.40;99.90
33023;DHT22;19390;51.460;5.710;2023-04-03T02:22:02;1.40;99.90
33023;DHT22;19390;51.460;5.710;2023-04-03T02:24:28;1.40;99.90
33023;DHT22;19390;51.460;5.710;2023-04-03T02:26:54;1.40;99.90
33023;DHT22;19390;51.460;5.710;2023-04-03T02:29:19;1.50;99.90
33023;DHT22;19390;51.460;5.710;2023-04-03T02:31:45;1.50;99.90
33023;DHT22;19390;51.460;5.710;2023-04-03T02:34:11;1.50;99.90
33023;DHT22;19390;51.460;5.710;2023-04-03T02:36:36;1.50;99.90
33023;DHT22;19390;51.460;5.710;2023-04-03T02:39:03;1.50;99.90
33023;DHT22;19390;51.460;5.710;2023-04-03T02:41:28;1.50;99.90
33023;DHT22;19390;51.460;5.710;2023-04-03T02:44:00;1.40;99.90
33023;DHT22;19390;51.460;5.710;2023-04-03T02:46:26;1.50;99.90
33023;DHT22;19390;51.460;5.710;2023-04-03T02:48:52;1.50;99.90
33023;DHT22;19390;51.460;5.710;2023-04-03T02:51:17;1.40;99.90
33023;DHT22;19390;51.460;5.710;2023-04-03T02:53:43;1.40;99.90
33023;DHT22;19390;51.460;5.710;2023-04-03T02:56:08;1.40;99.90
33023;DHT22;19390;51.460;5.710;2023-04-03T02:58:34;1.40;99.90
33023;DHT22;19390;51.460;5.710;2023-04-03T03:01:01;1.40;99.90
33023;DHT22;19390;51.460;5.710;2023-04-03T03:03:26;1.50;99.90
33023;DHT22;19390;51.460;5.710;2023-04-03T03:06:10;1.40;99.90
33023;DHT22;19390;51.460;5.710;2023-04-03T03:08:36;1.40;99.90
33023;DHT22;19390;51.460;5.710;2023-04-03T03:11:02;1.40;99.90
33023;DHT22;19390;51.460;5.710;2023-04-03T03:13:28;1.40;99.90
33023;DHT22;19390;51.460;5.710;2023-04-03T03:15:54;1.40;99.90
33023;DHT22;19390;51.460;5.710;2023-04-03T03:18:20;1.40;99.90
33023;DHT22;19390;51.460;5.710;2023-04-03T03:20:46;1.30;99.90
33023;DHT22;19390;51.460;5.710;2023-04-03T03:23:11;1.30;99.90
33023;DHT22;19390;51.460;5.710;2023-04-03T03:25:38;1.30;99.90
33023;DHT22;19390;51.460;5.710;2023-04-03T03:28:04;1.20;99.90
33023;DHT22;19390;51.460;5.710;2023-04-03T03:30:30;1.30;99.90
33023;DHT22;19390;51.460;5.710;2023-04-03T03:32:56;1.20;99.90
33023;DHT22;19390;51.460;5.710;2023-04-03T03:35:22;1.30;99.90
33023;DHT22;19390;51.460;5.710;2023-04-03T03:37:47;1.20;99.90
33023;DHT22;19390;51.460;5.710;2023-04-03T03:40:14;1.10;99.90
33023;DHT22;19390;51.460;5.710;2023-04-03T03:42:40;1.10;99.90
33023;DHT22;19390;51.460;5.710;2023-04-03T03:45:06;1.10;99.90
33023;DHT22;19390;51.460;5.710;2023-04-03T03:47:32;1.00;99.90
33023;DHT22;19390;51.460;5.710;2023-04-03T03:49:57;1.00;99.90
33023;DHT22;19390;51.460;5.710;2023-04-03T03:52:23;1.00;99.90
33023;DHT22;19390;51.460;5.710;2023-04-03T03:54:49;1.00;99.90
33023;DHT22;19390;51.460;5.710;2023-04-03T03:57:15;0.90;99.90
33023;DHT22;19390;51.460;5.710;2023-04-03T03:59:41;1.00;99.90
33023;DHT22;19390;51.460;5.710;2023-04-03T04:02:07;1.00;99.90
33023;DHT22;19390;51.460;5.710;2023-04-03T04:04:33;1.00;99.90
33023;DHT22;19390;51.460;5.710;2023-04-03T04:06:59;1.10;99.90
33023;DHT22;19390;51.460;5.710;2023-04-03T04:09:26;1.00;99.90
33023;DHT22;19390;51.460;5.710;2023-04-03T04:11:52;1.00;99.90
33023;DHT22;19390;51.460;5.710;2023-04-03T04:14:18;1.00;99.90
33023;DHT22;19390;51.460;5.710;2023-04-03T04:16:48;1.10;99.90
33023;DHT22;19390;51.460;5.710;2023-04-03T04:19:14;1.00;99.90
33023;DHT22;19390;51.460;5.710;2023-04-03T04:21:40;1.00;99.90
33023;DHT22;19390;51.460;5.710;2023-04-03T04:24:07;1.00;99.90
33023;DHT22;19390;51.460;5.710;2023-04-03T04:26:33;0.90;99.90
33023;DHT22;19390;51.460;5.710;2023-04-03T04:28:58;1.00;99.90
33023;DHT22;19390;51.460;5.710;2023-04-03T04:31:24;1.00;99.90
33023;DHT22;19390;51.460;5.710;2023-04-03T04:33:50;1.00;99.90
33023;DHT22;19390;51.460;5.710;2023-04-03T04:36:15;1.00;99.90
33023;DHT22;19390;51.460;5.710;2023-04-03T04:38:41;0.90;99.90
33023;DHT22;19390;51.460;5.710;2023-04-03T04:41:07;0.90;99.90
33023;DHT22;19390;51.460;5.710;2023-04-03T04:43:33;0.90;99.90
33023;DHT22;19390;51.460;5.710;2023-04-03T04:46:05;0.90;99.90
33023;DHT22;19390;51.460;5.710;2023-04-03T04:48:32;1.00;99.90
33023;DHT22;19390;51.460;5.710;2023-04-03T04:50:58;0.80;99.90
33023;DHT22;19390;51.460;5.710;2023-04-03T04:53:24;1.00;99.90
33023;DHT22;19390;51.460;5.710;2023-04-03T04:55:49;0.90;99.90
33023;DHT22;19390;51.460;5.710;2023-04-03T04:58:15;0.90;99.90
33023;DHT22;19390;51.460;5.710;2023-04-03T05:00:40;1.00;99.90
33023;DHT22;19390;51.460;5.710;2023-04-03T05:03:06;1.00;99.90
33023;DHT22;19390;51.460;5.710;2023-04-03T05:05:32;1.10;99.90
33023;DHT22;19390;51.460;5.710;2023-04-03T05:07:57;1.00;99.90
33023;DHT22;19390;51.460;5.710;2023-04-03T05:10:23;1.00;99.90
33023;DHT22;19390;51.460;5.710;2023-04-03T05:12:48;1.00;99.90
33023;DHT22;19390;51.460;5.710;2023-04-03T05:15:14;1.00;99.90
33023;DHT22;19390;51.460;5.710;2023-04-03T05:17:40;0.90;99.90
33023;DHT22;19390;51.460;5.710;2023-04-03T05:20:06;0.90;99.90
33023;DHT22;19390;51.460;5.710;2023-04-03T05:22:32;1.00;99.90
33023;DHT22;19390;51.460;5.710;2023-04-03T05:24:58;1.00;99.90
33023;DHT22;19390;51.460;5.710;2023-04-03T05:27:24;1.20;99.90
33023;DHT22;19390;51.460;5.710;2023-04-03T05:29:50;1.70;99.90
33023;DHT22;19390;51.460;5.710;2023-04-03T05:32:17;2.40;99.90
33023;DHT22;19390;51.460;5.710;2023-04-03T05:34:43;2.10;99.90
33023;DHT22;19390;51.460;5.710;2023-04-03T05:37:08;1.90;99.90
33023;DHT22;19390;51.460;5.710;2023-04-03T05:39:34;2.50;99.90
33023;DHT22;19390;51.460;5.710;2023-04-03T05:42:00;2.10;99.90
33023;DHT22;19390;51.460;5.710;2023-04-03T05:44:26;1.80;99.90
33023;DHT22;19390;51.460;5.710;2023-04-03T05:46:52;1.60;99.90
33023;DHT22;19390;51.460;5.710;2023-04-03T05:49:17;2.40;99.90
33023;DHT22;19390;51.460;5.710;2023-04-03T05:51:43;2.80;99.90
33023;DHT22;19390;51.460;5.710;2023-04-03T05:54:17;2.70;99.90
33023;DHT22;19390;51.460;5.710;2023-04-03T05:56:43;2.60;99.90
33023;DHT22;19390;51.460;5.710;2023-04-03T05:59:09;3.20;99.90
33023;DHT22;19390;51.460;5.710;2023-04-03T06:01:35;4.90;99.90
33023;DHT22;19390;51.460;5.710;2023-04-03T06:04:00;7.40;99.90
33023;DHT22;19390;51.460;5.710;2023-04-03T06:06:55;8.30;99.90
33023;DHT22;19390;51.460;5.710;2023-04-03T06:09:24;8.80;99.90
33023;DHT22;19390;51.460;5.710;2023-04-03T06:11:50;8.70;99.90
33023;DHT22;19390;51.460;5.710;2023-04-03T06:14:16;9.10;99.90
33023;DHT22;19390;51.460;5.710;2023-04-03T06:16:42;8.80;99.90
33023;DHT22;19390;51.460;5.710;2023-04-03T06:19:10;8.80;99.90
33023;DHT22;19390;51.460;5.710;2023-04-03T06:21:36;9.60;99.90
33023;DHT22;19390;51.460;5.710;2023-04-03T06:24:03;10.00;99.90
33023;DHT22;19390;51.460;5.710;2023-04-03T06:26:29;10.40;99.90
33023;DHT22;19390;51.460;5.710;2023-04-03T06:28:55;11.00;99.90
33023;DHT22;19390;51.460;5.710;2023-04-03T06:31:21;10.90;99.90
33023;DHT22;19390;51.460;5.710;2023-04-03T06:33:47;9.40;99.90
33023;DHT22;19390;51.460;5.710;2023-04-03T06:36:13;10.10;99.90
33023;DHT22;19390;51.460;5.710;2023-04-03T06:38:39;9.80;99.90
33023;DHT22;19390;51.460;5.710;2023-04-03T06:41:05;8.70;99.90
33023;DHT22;19390;51.460;5.710;2023-04-03T06:43:31;9.20;99.90
33023;DHT22;19390;51.460;5.710;2023-04-03T06:45:57;10.40;99.90
33023;DHT22;19390;51.460;5.710;2023-04-03T06:48:23;11.90;99.90
33023;DHT22;19390;51.460;5.710;2023-04-03T06:50:49;11.90;99.90
33023;DHT22;19390;51.460;5.710;2023-04-03T06:53:15;11.40;99.90
33023;DHT22;19390;51.460;5.710;2023-04-03T06:55:41;12.70;99.90
33023;DHT22;19390;51.460;5.710;2023-04-03T06:58:06;11.70;99.90
33023;DHT22;19390;51.460;5.710;2023-04-03T07:00:32;12.60;99.90
33023;DHT22;19390;51.460;5.710;2023-04-03T07:02:58;14.00;99.90
33023;DHT22;19390;51.460;5.710;2023-04-03T07:05:24;13.50;99.90
33023;DHT22;19390;51.460;5.710;2023-04-03T07:07:52;12.20;99.90
33023;DHT22;19390;51.460;5.710;2023-04-03T07:10:18;14.60;99.90
33023;DHT22;19390;51.460;5.710;2023-04-03T07:12:44;14.40;99.90
33023;DHT22;19390;51.460;5.710;2023-04-03T07:15:11;13.10;99.90
33023;DHT22;19390;51.460;5.710;2023-04-03T07:17:38;12.60;99.90
33023;DHT22;19390;51.460;5.710;2023-04-03T07:20:05;13.90;99.90
33023;DHT22;19390;51.460;5.710;2023-04-03T07:22:33;12.90;99.90
33023;DHT22;19390;51.460;5.710;2023-04-03T07:25:05;14.20;99.90
33023;DHT22;19390;51.460;5.710;2023-04-03T07:27:33;15.20;99.90
33023;DHT22;19390;51.460;5.710;2023-04-03T07:29:59;13.00;99.90
33023;DHT22;19390;51.460;5.710;2023-04-03T07:32:25;13.60;99.90
33023;DHT22;19390;51.460;5.710;2023-04-03T07:34:51;14.10;99.90
33023;DHT22;19390;51.460;5.710;2023-04-03T07:37:16;15.10;99.90
33023;DHT22;19390;51.460;5.710;2023-04-03T07:39:44;12.80;99.90
33023;DHT22;19390;51.460;5.710;2023-04-03T07:42:10;11.60;99.90
33023;DHT22;19390;51.460;5.710;2023-04-03T07:44:36;13.00;99.90
33023;DHT22;19390;51.460;5.710;2023-04-03T07:47:02;14.10;99.90
33023;DHT22;19390;51.460;5.710;2023-04-03T07:49:27;11.70;99.90
33023;DHT22;19390;51.460;5.710;2023-04-03T07:51:53;12.50;99.90
33023;DHT22;19390;51.460;5.710;2023-04-03T07:54:19;14.30;99.90
33023;DHT22;19390;51.460;5.710;2023-04-03T07:56:45;14.50;99.90
33023;DHT22;19390;51.460;5.710;2023-04-03T07:59:11;13.30;99.90
33023;DHT22;19390;51.460;5.710;2023-04-03T08:01:37;12.70;99.90
33023;DHT22;19390;51.460;5.710;2023-04-03T08:04:03;15.10;99.90
33023;DHT22;19390;51.460;5.710;2023-04-03T08:06:30;15.90;99.90
33023;DHT22;19390;51.460;5.710;2023-04-03T08:08:57;12.50;99.90
33023;DHT22;19390;51.460;5.710;2023-04-03T08:11:24;13.30;99.90
33023;DHT22;19390;51.460;5.710;2023-04-03T08:13:52;12.20;99.90
33023;DHT22;19390;51.460;5.710;2023-04-03T08:16:20;13.80;99.90
33023;DHT22;19390;51.460;5.710;2023-04-03T08:18:48;14.50;99.90
33023;DHT22;19390;51.460;5.710;2023-04-03T08:21:13;16.40;99.90
33023;DHT22;19390;51.460;5.710;2023-04-03T08:23:40;12.60;99.90
33023;DHT22;19390;51.460;5.710;2023-04-03T08:26:14;12.50;99.90
33023;DHT22;19390;51.460;5.710;2023-04-03T08:28:40;14.60;99.90
33023;DHT22;19390;51.460;5.710;2023-04-03T08:31:09;12.60;99.90
33023;DHT22;19390;51.460;5.710;2023-04-03T08:33:37;13.40;99.90
33023;DHT22;19390;51.460;5.710;2023-04-03T08:36:04;12.30;99.90
33023;DHT22;19390;51.460;5.710;2023-04-03T08:38:31;12.50;99.90
33023;DHT22;19390;51.460;5.710;2023-04-03T08:41:05;13.50;99.90
33023;DHT22;19390;51.460;5.710;2023-04-03T08:46:14;17.30;99.90
33023;DHT22;19390;51.460;5.710;2023-04-03T08:48:42;15.30;99.90
33023;DHT22;19390;51.460;5.710;2023-04-03T08:51:17;14.30;99.90
33023;DHT22;19390;51.460;5.710;2023-04-03T08:53:59;11.70;99.90
33023;DHT22;19390;51.460;5.710;2023-04-03T08:56:29;13.00;99.90
33023;DHT22;19390;51.460;5.710;2023-04-03T08:59:05;12.60;99.90
33023;DHT22;19390;51.460;5.710;2023-04-03T09:01:36;14.20;99.90
33023;DHT22;19390;51.460;5.710;2023-04-03T09:04:09;16.20;99.90
33023;DHT22;19390;51.460;5.710;2023-04-03T09:06:36;15.50;99.90
33023;DHT22;19390;51.460;5.710;2023-04-03T09:09:24;16.50;99.90
33023;DHT22;19390;51.460;5.710;2023-04-03T09:22:59;18.90;99.90
33023;DHT22;19390;51.460;5.710;2023-04-03T09:25:31;17.60;99.90
33023;DHT22;19390;51.460;5.710;2023-04-03T09:27:59;13.70;99.90
33023;DHT22;19390;51.460;5.710;2023-04-03T09:30:26;11.90;99.90
33023;DHT22;19390;51.460;5.710;2023-04-03T09:32:54;13.80;99.90
33023;DHT22;19390;51.460;5.710;2023-04-03T09:35:23;13.70;99.90
33023;DHT22;19390;51.460;5.710;2023-04-03T09:37:51;15.80;99.90
33023;DHT22;19390;51.460;5.710;2023-04-03T09:43:00;14.60;99.90
33023;DHT22;19390;51.460;5.710;2023-04-03T09:45:32;15.80;99.90
33023;DHT22;19390;51.460;5.710;2023-04-03T09:48:13;16.80;99.90
33023;DHT22;19390;51.460;5.710;2023-04-03T09:56:00;10.80;99.90
33023;DHT22;19390;51.460;5.710;2023-04-03T09:58:36;14.70;99.90
33023;DHT22;19390;51.460;5.710;2023-04-03T10:01:04;15.70;99.90
33023;DHT22;19390;51.460;5.710;2023-04-03T10:03:32;17.40;99.90
33023;DHT22;19390;51.460;5.710;2023-04-03T10:06:00;15.30;99.90
33023;DHT22;19390;51.460;5.710;2023-04-03T10:08:31;13.10;99.70
33023;DHT22;19390;51.460;5.710;2023-04-03T10:11:16;15.50;99.90
33023;DHT22;19390;51.460;5.710;2023-04-03T10:14:00;14.90;99.50
33023;DHT22;19390;51.460;5.710;2023-04-03T10:19:14;14.50;99.90
33023;DHT22;19390;51.460;5.710;2023-04-03T10:21:50;11.60;97.50
33023;DHT22;19390;51.460;5.710;2023-04-03T10:24:34;13.20;99.90
33023;DHT22;19390;51.460;5.710;2023-04-03T10:34:40;14.10;99.90
33023;DHT22;19390;51.460;5.710;2023-04-03T10:37:27;15.70;99.90
33023;DHT22;19390;51.460;5.710;2023-04-03T10:58:34;13.10;98.10
33023;DHT22;19390;51.460;5.710;2023-04-03T11:01:08;12.20;97.40
33023;DHT22;19390;51.460;5.710;2023-04-03T11:03:40;13.60;99.90
33023;DHT22;19390;51.460;5.710;2023-04-03T11:06:11;13.10;99.90
33023;DHT22;19390;51.460;5.710;2023-04-03T11:08:59;12.20;98.60
33023;DHT22;19390;51.460;5.710;2023-04-03T11:11:34;13.70;98.80
33023;DHT22;19390;51.460;5.710;2023-04-03T11:16:47;13.90;99.90
33023;DHT22;19390;51.460;5.710;2023-04-03T11:19:39;11.60;96.70
33023;DHT22;19390;51.460;5.710;2023-04-03T11:22:16;13.50;99.90
33023;DHT22;19390;51.460;5.710;2023-04-03T11:24:54;14.40;99.90
33023;DHT22;19390;51.460;5.710;2023-04-03T11:27:23;14.70;99.30
33023;DHT22;19390;51.460;5.710;2023-04-03T11:29:50;12.60;98.10
33023;DHT22;19390;51.460;5.710;2023-04-03T11:32:42;12.10;97.40
33023;DHT22;19390;51.460;5.710;2023-04-03T11:35:10;12.10;99.00
33023;DHT22;19390;51.460;5.710;2023-04-03T11:37:42;13.80;98.70
33023;DHT22;19390;51.460;5.710;2023-04-03T11:42:51;13.60;99.90
33023;DHT22;19390;51.460;5.710;2023-04-03T11:45:25;12.20;94.60
33023;DHT22;19390;51.460;5.710;2023-04-03T11:47:58;13.10;98.70
33023;DHT22;19390;51.460;5.710;2023-04-03T11:53:26;12.80;98.50
33023;DHT22;19390;51.460;5.710;2023-04-03T11:56:00;11.80;94.40
33023;DHT22;19390;51.460;5.710;2023-04-03T11:58:27;12.20;95.50
33023;DHT22;19390;51.460;5.710;2023-04-03T12:00:54;13.10;99.90
33023;DHT22;19390;51.460;5.710;2023-04-03T12:05:55;12.50;99.90
33023;DHT22;19390;51.460;5.710;2023-04-03T12:21:16;12.80;98.90
33023;DHT22;19390;51.460;5.710;2023-04-03T12:26:38;14.00;99.30
33023;DHT22;19390;51.460;5.710;2023-04-03T12:40:45;13.10;97.70
33023;DHT22;19390;51.460;5.710;2023-04-03T12:46:20;15.10;98.50
33023;DHT22;19390;51.460;5.710;2023-04-03T12:48:53;12.20;96.70
33023;DHT22;19390;51.460;5.710;2023-04-03T12:51:34;13.30;99.90
33023;DHT22;19390;51.460;5.710;2023-04-03T12:56:39;16.00;99.90
33023;DHT22;19390;51.460;5.710;2023-04-03T12:59:23;16.20;99.90
33023;DHT22;19390;51.460;5.710;2023-04-03T13:02:00;13.80;97.00
33023;DHT22;19390;51.460;5.710;2023-04-03T13:04:31;14.70;99.90
33023;DHT22;19390;51.460;5.710;2023-04-03T13:06:57;12.30;96.10
33023;DHT22;19390;51.460;5.710;2023-04-03T13:09:29;13.00;98.00
33023;DHT22;19390;51.460;5.710;2023-04-03T13:12:00;12.20;96.50
33023;DHT22;19390;51.460;5.710;2023-04-03T13:14:27;13.60;99.90
33023;DHT22;19390;51.460;5.710;2023-04-03T13:17:12;13.40;99.90
33023;DHT22;19390;51.460;5.710;2023-04-03T13:19:39;13.30;99.90
33023;DHT22;19390;51.460;5.710;2023-04-03T13:22:30;14.90;99.90
33023;DHT22;19390;51.460;5.710;2023-04-03T13:24:59;15.10;99.90
33023;DHT22;19390;51.460;5.710;2023-04-03T13:27:29;14.30;99.90
33023;DHT22;19390;51.460;5.710;2023-04-03T13:29:58;13.60;97.80
33023;DHT22;19390;51.460;5.710;2023-04-03T13:32:27;12.90;98.40
33023;DHT22;19390;51.460;5.710;2023-04-03T13:34:53;12.70;99.90
33023;DHT22;19390;51.460;5.710;2023-04-03T13:37:32;12.00;98.30
33023;DHT22;19390;51.460;5.710;2023-04-03T13:42:34;14.70;99.90
33023;DHT22;19390;51.460;5.710;2023-04-03T13:47:41;14.20;99.90
33023;DHT22;19390;51.460;5.710;2023-04-03T13:52:43;14.60;99.90
33023;DHT22;19390;51.460;5.710;2023-04-03T13:55:29;15.10;99.90
33023;DHT22;19390;51.460;5.710;2023-04-03T13:58:00;14.90;99.90
33023;DHT22;19390;51.460;5.710;2023-04-03T14:00:52;14.00;99.90
33023;DHT22;19390;51.460;5.710;2023-04-03T14:03:39;12.50;99.90
33023;DHT22;19390;51.460;5.710;2023-04-03T14:06:06;13.60;99.90
33023;DHT22;19390;51.460;5.710;2023-04-03T14:08:32;13.40;99.90
33023;DHT22;19390;51.460;5.710;2023-04-03T14:10:58;13.40;99.90
33023;DHT22;19390;51.460;5.710;2023-04-03T14:13:23;13.40;99.10
33023;DHT22;19390;51.460;5.710;2023-04-03T14:15:49;13.00;98.50
33023;DHT22;19390;51.460;5.710;2023-04-03T14:18:19;14.00;99.90
33023;DHT22;19390;51.460;5.710;2023-04-03T14:20:45;14.70;99.90
33023;DHT22;19390;51.460;5.710;2023-04-03T14:23:11;14.30;99.90
33023;DHT22;19390;51.460;5.710;2023-04-03T14:25:37;12.40;99.90
33023;DHT22;19390;51.460;5.710;2023-04-03T14:28:32;14.10;99.90
33023;DHT22;19390;51.460;5.710;2023-04-03T14:30:58;12.80;99.90
33023;DHT22;19390;51.460;5.710;2023-04-03T14:33:24;12.80;99.90
33023;DHT22;19390;51.460;5.710;2023-04-03T14:35:53;12.20;99.90
33023;DHT22;19390;51.460;5.710;2023-04-03T14:38:28;12.80;99.90
33023;DHT22;19390;51.460;5.710;2023-04-03T14:40:55;13.00;99.90
33023;DHT22;19390;51.460;5.710;2023-04-03T14:43:21;12.60;99.90
33023;DHT22;19390;51.460;5.710;2023-04-03T14:45:48;12.80;99.90
33023;DHT22;19390;51.460;5.710;2023-04-03T14:48:20;12.30;99.90
33023;DHT22;19390;51.460;5.710;2023-04-03T14:50:50;12.10;99.90
33023;DHT22;19390;51.460;5.710;2023-04-03T14:53:16;12.80;99.90
33023;DHT22;19390;51.460;5.710;2023-04-03T14:55:46;12.20;99.90
33023;DHT22;19390;51.460;5.710;2023-04-03T14:58:17;12.30;99.90
33023;DHT22;19390;51.460;5.710;2023-04-03T15:00:44;12.20;99.90
33023;DHT22;19390;51.460;5.710;2023-04-03T15:03:19;12.30;99.90
33023;DHT22;19390;51.460;5.710;2023-04-03T15:05:46;11.90;99.90
33023;DHT22;19390;51.460;5.710;2023-04-03T15:08:21;10.90;99.90
33023;DHT22;19390;51.460;5.710;2023-04-03T15:10:49;10.70;99.90
33023;DHT22;19390;51.460;5.710;2023-04-03T15:13:15;10.00;99.90
33023;DHT22;19390;51.460;5.710;2023-04-03T15:15:42;10.30;99.90
33023;DHT22;19390;51.460;5.710;2023-04-03T15:18:13;10.40;99.90
33023;DHT22;19390;51.460;5.710;2023-04-03T15:20:39;9.90;99.90
33023;DHT22;19390;51.460;5.710;2023-04-03T15:23:05;10.10;99.90
33023;DHT22;19390;51.460;5.710;2023-04-03T15:25:32;10.50;99.90
33023;DHT22;19390;51.460;5.710;2023-04-03T15:27:58;9.70;99.90
33023;DHT22;19390;51.460;5.710;2023-04-03T15:30:25;10.30;99.90
33023;DHT22;19390;51.460;5.710;2023-04-03T15:32:50;10.00;99.90
33023;DHT22;19390;51.460;5.710;2023-04-03T15:35:16;10.00;99.90
33023;DHT22;19390;51.460;5.710;2023-04-03T15:37:43;9.80;99.90
33023;DHT22;19390;51.460;5.710;2023-04-03T15:40:08;9.70;99.90
33023;DHT22;19390;51.460;5.710;2023-04-03T15:42:34;9.50;99.90
33023;DHT22;19390;51.460;5.710;2023-04-03T15:45:00;9.70;99.90
33023;DHT22;19390;51.460;5.710;2023-04-03T15:47:26;9.90;99.90
33023;DHT22;19390;51.460;5.710;2023-04-03T15:49:53;9.40;99.90
33023;DHT22;19390;51.460;5.710;2023-04-03T15:52:19;9.80;99.90
33023;DHT22;19390;51.460;5.710;2023-04-03T15:54:45;9.60;99.90
33023;DHT22;19390;51.460;5.710;2023-04-03T15:57:11;9.10;99.90
33023;DHT22;19390;51.460;5.710;2023-04-03T15:59:36;9.30;99.90
33023;DHT22;19390;51.460;5.710;2023-04-03T16:02:04;9.40;99.90
33023;DHT22;19390;51.460;5.710;2023-04-03T16:04:30;9.20;99.90
33023;DHT22;19390;51.460;5.710;2023-04-03T16:06:56;9.10;99.90
33023;DHT22;19390;51.460;5.710;2023-04-03T16:09:22;9.40;99.90
33023;DHT22;19390;51.460;5.710;2023-04-03T16:11:47;9.10;99.90
33023;DHT22;19390;51.460;5.710;2023-04-03T16:14:13;8.80;99.90
33023;DHT22;19390;51.460;5.710;2023-04-03T16:16:39;8.70;99.90
33023;DHT22;19390;51.460;5.710;2023-04-03T16:19:05;8.70;99.90
33023;DHT22;19390;51.460;5.710;2023-04-03T16:21:32;8.70;99.90
33023;DHT22;19390;51.460;5.710;2023-04-03T16:23:58;8.80;99.90
33023;DHT22;19390;51.460;5.710;2023-04-03T16:26:24;8.70;99.90
33023;DHT22;19390;51.460;5.710;2023-04-03T16:28:51;8.60;99.90
33023;DHT22;19390;51.460;5.710;2023-04-03T16:31:16;8.50;99.90
33023;DHT22;19390;51.460;5.710;2023-04-03T16:33:42;8.70;99.90
33023;DHT22;19390;51.460;5.710;2023-04-03T16:36:08;8.60;99.90
33023;DHT22;19390;51.460;5.710;2023-04-03T16:38:35;8.50;99.90
33023;DHT22;19390;51.460;5.710;2023-04-03T16:41:01;8.50;99.90
33023;DHT22;19390;51.460;5.710;2023-04-03T16:43:30;8.40;99.90
33023;DHT22;19390;51.460;5.710;2023-04-03T16:45:56;8.30;99.90
33023;DHT22;19390;51.460;5.710;2023-04-03T16:48:22;8.20;99.90
33023;DHT22;19390;51.460;5.710;2023-04-03T16:50:48;8.40;99.90
33023;DHT22;19390;51.460;5.710;2023-04-03T16:53:16;8.40;99.90
33023;DHT22;19390;51.460;5.710;2023-04-03T16:55:41;8.20;99.90
33023;DHT22;19390;51.460;5.710;2023-04-03T16:58:07;8.10;99.90
33023;DHT22;19390;51.460;5.710;2023-04-03T17:00:33;8.10;99.90
33023;DHT22;19390;51.460;5.710;2023-04-03T17:02:59;8.10;99.90
33023;DHT22;19390;51.460;5.710;2023-04-03T17:05:25;8.00;99.90
33023;DHT22;19390;51.460;5.710;2023-04-03T17:07:50;7.90;99.90
33023;DHT22;19390;51.460;5.710;2023-04-03T17:10:16;7.90;99.90
33023;DHT22;19390;51.460;5.710;2023-04-03T17:12:42;7.80;99.90
33023;DHT22;19390;51.460;5.710;2023-04-03T17:15:08;7.90;99.90
33023;DHT22;19390;51.460;5.710;2023-04-03T17:17:34;7.70;99.90
33023;DHT22;19390;51.460;5.710;2023-04-03T17:20:00;7.60;99.90
33023;DHT22;19390;51.460;5.710;2023-04-03T17:22:25;7.60;99.90
33023;DHT22;19390;51.460;5.710;2023-04-03T17:24:52;7.50;99.90
33023;DHT22;19390;51.460;5.710;2023-04-03T17:27:18;7.50;99.90
33023;DHT22;19390;51.460;5.710;2023-04-03T17:29:43;7.40;99.90
33023;DHT22;19390;51.460;5.710;2023-04-03T17:32:09;7.30;99.90
33023;DHT22;19390;51.460;5.710;2023-04-03T17:34:35;7.20;99.90
33023;DHT22;19390;51.460;5.710;2023-04-03T17:37:01;7.10;99.90
33023;DHT22;19390;51.460;5.710;2023-04-03T17:39:27;7.00;99.90
33023;DHT22;19390;51.460;5.710;2023-04-03T17:41:53;7.00;99.90